Promised Land, New York
Current Conditions -  °F | °C
As of 12:56 PM on Thursday 18 Dec 2014 (Local Time) from KGON Reporting Station
Overcast Overcast  
Wind Chill: 32°   Ceiling: 3500
Heat Index: 40°   Visibility: 7mi
Dew Point: 27°   Wind: 14mph
Humidity: 60%   Direction: 300°WNW
Pressure: 29.84"   Gusts: 24mph
Location:  40.9764°N, 72.1316°W
Report Text: KGON 181756Z 30012G21KT 7SM OVC035 04/M03 A2984 RMK AO2 PK WND 33029/1711 SLP105 T00441028 10050 20022 58011
Loading
Personal Weather Stations






























Interactive Weather Map New forecast layout! Learn more

10-Day Weather Forecast

Advertisements
Track Severe Weather on mobile